sensor_id;sensor_type;location;lat;lon;timestamp;pressure;altitude;pressure_sealevel;temperature;humidity
66664;BME280;59683;51.428;-1.994;2023-03-18T10:47:03;99674.63;;;19.72;100.00
66664;BME280;59683;51.428;-1.994;2023-03-18T10:49:36;99667.19;;;20.07;100.00
66664;BME280;59683;51.428;-1.994;2023-03-18T10:52:19;99671.50;;;20.61;100.00
66664;BME280;59683;51.428;-1.994;2023-03-18T10:54:51;99676.06;;;21.19;100.00
66664;BME280;59683;51.428;-1.994;2023-03-18T10:57:19;99664.06;;;19.70;100.00
66664;BME280;59683;51.428;-1.994;2023-03-18T10:59:45;99669.56;;;19.42;100.00
66664;BME280;59683;51.428;-1.994;2023-03-18T11:05:35;99669.91;;;21.12;100.00
66664;BME280;59683;51.428;-1.994;2023-03-18T11:08:05;99674.69;;;21.03;100.00
66664;BME280;59683;51.428;-1.994;2023-03-18T11:10:35;99665.34;;;21.05;100.00
66664;BME280;59683;51.428;-1.994;2023-03-18T11:13:01;99679.94;;;21.36;100.00
66664;BME280;59683;51.428;-1.994;2023-03-18T11:15:38;99676.38;;;22.05;100.00
66664;BME280;59683;51.428;-1.994;2023-03-18T11:18:14;99669.34;;;21.48;100.00
66664;BME280;59683;51.428;-1.994;2023-03-18T11:24:02;99669.78;;;21.70;100.00
66664;BME280;59683;51.428;-1.994;2023-03-18T11:26:52;99675.63;;;21.98;91.63
66664;BME280;59683;51.428;-1.994;2023-03-18T11:29:25;99677.63;;;22.96;89.95
66664;BME280;59683;51.428;-1.994;2023-03-18T11:31:55;99687.88;;;23.55;76.74
66664;BME280;59683;51.428;-1.994;2023-03-18T11:34:24;99685.09;;;23.13;91.32
66664;BME280;59683;51.428;-1.994;2023-03-18T11:37:09;99681.19;;;22.28;95.80
66664;BME280;59683;51.428;-1.994;2023-03-18T11:43:02;99673.59;;;22.19;100.00
66664;BME280;59683;51.428;-1.994;2023-03-18T11:45:52;99673.69;;;22.74;97.58
66664;BME280;59683;51.428;-1.994;2023-03-18T12:06:32;99692.63;;;23.41;63.06
66664;BME280;59683;51.428;-1.994;2023-03-18T13:49:25;99721.16;;;14.41;100.00
66664;BME280;59683;51.428;-1.994;2023-03-18T13:52:02;99719.84;;;14.20;100.00
66664;BME280;59683;51.428;-1.994;2023-03-18T13:54:33;99725.50;;;13.93;100.00
66664;BME280;59683;51.428;-1.994;2023-03-18T13:57:33;99723.09;;;13.49;100.00
66664;BME280;59683;51.428;-1.994;2023-03-18T14:02:44;99727.19;;;12.93;100.00
66664;BME280;59683;51.428;-1.994;2023-03-18T14:07:56;99727.31;;;12.83;100.00
66664;BME280;59683;51.428;-1.994;2023-03-18T14:10:22;99729.31;;;12.89;100.00
66664;BME280;59683;51.428;-1.994;2023-03-18T14:12:47;99728.72;;;13.03;100.00
66664;BME280;59683;51.428;-1.994;2023-03-18T14:17:43;99734.63;;;13.23;100.00
66664;BME280;59683;51.428;-1.994;2023-03-18T14:20:17;99732.22;;;13.04;100.00
66664;BME280;59683;51.428;-1.994;2023-03-18T14:22:48;99724.69;;;13.25;100.00
66664;BME280;59683;51.428;-1.994;2023-03-18T14:25:18;99730.94;;;13.16;100.00
66664;BME280;59683;51.428;-1.994;2023-03-18T14:27:48;99728.91;;;13.02;100.00
66664;BME280;59683;51.428;-1.994;2023-03-18T14:35:57;99719.47;;;14.48;100.00
66664;BME280;59683;51.428;-1.994;2023-03-18T14:38:26;99726.34;;;16.37;100.00
66664;BME280;59683;51.428;-1.994;2023-03-18T14:40:55;99724.84;;;17.89;100.00
66664;BME280;59683;51.428;-1.994;2023-03-18T14:44:02;99722.56;;;19.27;100.00
66664;BME280;59683;51.428;-1.994;2023-03-18T14:46:34;99726.19;;;18.71;100.00
66664;BME280;59683;51.428;-1.994;2023-03-18T14:49:01;99728.25;;;17.77;100.00
66664;BME280;59683;51.428;-1.994;2023-03-18T14:51:29;99725.72;;;16.50;100.00
66664;BME280;59683;51.428;-1.994;2023-03-18T14:54:04;99717.72;;;15.35;100.00
66664;BME280;59683;51.428;-1.994;2023-03-18T14:56:37;99725.13;;;14.69;100.00
66664;BME280;59683;51.428;-1.994;2023-03-18T14:59:04;99723.34;;;14.37;100.00
66664;BME280;59683;51.428;-1.994;2023-03-18T15:01:37;99723.66;;;14.01;100.00
66664;BME280;59683;51.428;-1.994;2023-03-18T15:04:07;99720.97;;;13.69;100.00
66664;BME280;59683;51.428;-1.994;2023-03-18T15:06:38;99717.78;;;13.57;100.00
66664;BME280;59683;51.428;-1.994;2023-03-18T15:09:08;99721.81;;;13.69;100.00
66664;BME280;59683;51.428;-1.994;2023-03-18T15:11:42;99724.00;;;13.82;100.00
66664;BME280;59683;51.428;-1.994;2023-03-18T15:14:17;99721.81;;;13.69;100.00
66664;BME280;59683;51.428;-1.994;2023-03-18T15:16:48;99726.81;;;13.80;100.00
66664;BME280;59683;51.428;-1.994;2023-03-18T15:19:17;99724.50;;;13.77;100.00
66664;BME280;59683;51.428;-1.994;2023-03-18T15:21:43;99733.28;;;13.70;100.00
66664;BME280;59683;51.428;-1.994;2023-03-18T15:24:14;99732.78;;;13.66;100.00
66664;BME280;59683;51.428;-1.994;2023-03-18T15:26:42;99725.25;;;13.45;100.00
66664;BME280;59683;51.428;-1.994;2023-03-18T15:29:26;99731.97;;;13.23;100.00
66664;BME280;59683;51.428;-1.994;2023-03-18T15:31:52;99729.97;;;13.17;100.00
66664;BME280;59683;51.428;-1.994;2023-03-18T15:34:30;99737.63;;;13.20;100.00
66664;BME280;59683;51.428;-1.994;2023-03-18T15:36:59;99739.97;;;13.23;100.00
66664;BME280;59683;51.428;-1.994;2023-03-18T15:39:38;99736.88;;;13.36;100.00
66664;BME280;59683;51.428;-1.994;2023-03-18T15:42:16;99740.69;;;13.50;100.00
66664;BME280;59683;51.428;-1.994;2023-03-18T15:44:43;99732.59;;;13.68;100.00
66664;BME280;59683;51.428;-1.994;2023-03-18T15:47:16;99737.16;;;13.92;100.00
66664;BME280;59683;51.428;-1.994;2023-03-18T15:52:34;99739.44;;;14.76;100.00
66664;BME280;59683;51.428;-1.994;2023-03-18T15:55:31;99746.69;;;15.38;100.00
66664;BME280;59683;51.428;-1.994;2023-03-18T15:57:59;99744.28;;;15.83;100.00
66664;BME280;59683;51.428;-1.994;2023-03-18T16:00:25;99744.84;;;16.39;100.00
66664;BME280;59683;51.428;-1.994;2023-03-18T16:02:51;99744.50;;;16.42;100.00
66664;BME280;59683;51.428;-1.994;2023-03-18T16:05:19;99745.97;;;15.84;100.00
66664;BME280;59683;51.428;-1.994;2023-03-18T16:07:46;99744.72;;;15.63;100.00
66664;BME280;59683;51.428;-1.994;2023-03-18T16:10:13;99754.06;;;15.67;100.00
66664;BME280;59683;51.428;-1.994;2023-03-18T16:12:51;99755.34;;;16.02;100.00
66664;BME280;59683;51.428;-1.994;2023-03-18T16:15:20;99753.00;;;16.60;100.00
66664;BME280;59683;51.428;-1.994;2023-03-18T16:17:49;99750.03;;;16.78;100.00
66664;BME280;59683;51.428;-1.994;2023-03-18T16:20:26;99765.41;;;15.92;100.00
66664;BME280;59683;51.428;-1.994;2023-03-18T16:22:53;99764.84;;;15.43;100.00
66664;BME280;59683;51.428;-1.994;2023-03-18T16:25:19;99757.91;;;15.25;100.00
66664;BME280;59683;51.428;-1.994;2023-03-18T16:27:47;99767.72;;;15.33;100.00
66664;BME280;59683;51.428;-1.994;2023-03-18T16:30:25;99772.81;;;15.51;100.00
66664;BME280;59683;51.428;-1.994;2023-03-18T16:32:52;99768.88;;;15.39;100.00
66664;BME280;59683;51.428;-1.994;2023-03-18T16:35:21;99774.31;;;15.45;100.00
66664;BME280;59683;51.428;-1.994;2023-03-18T16:37:47;99772.03;;;15.34;100.00
66664;BME280;59683;51.428;-1.994;2023-03-18T16:42:40;99790.84;;;14.93;100.00
66664;BME280;59683;51.428;-1.994;2023-03-18T16:45:19;99785.16;;;15.44;100.00
66664;BME280;59683;51.428;-1.994;2023-03-18T16:47:46;99799.22;;;15.29;100.00
66664;BME280;59683;51.428;-1.994;2023-03-18T16:50:19;99803.19;;;15.34;100.00
66664;BME280;59683;51.428;-1.994;2023-03-18T16:52:47;99803.03;;;15.74;100.00
66664;BME280;59683;51.428;-1.994;2023-03-18T16:55:14;99811.06;;;15.74;100.00
66664;BME280;59683;51.428;-1.994;2023-03-18T16:57:45;99811.88;;;15.75;100.00
66664;BME280;59683;51.428;-1.994;2023-03-18T17:00:20;99803.31;;;15.88;100.00
66664;BME280;59683;51.428;-1.994;2023-03-18T17:02:47;99810.41;;;15.72;100.00
66664;BME280;59683;51.428;-1.994;2023-03-18T17:05:16;99820.63;;;15.52;100.00
66664;BME280;59683;51.428;-1.994;2023-03-18T17:07:44;99820.25;;;15.64;100.00
66664;BME280;59683;51.428;-1.994;2023-03-18T17:10:12;99832.13;;;15.53;100.00
66664;BME280;59683;51.428;-1.994;2023-03-18T17:12:39;99829.25;;;15.15;100.00
66664;BME280;59683;51.428;-1.994;2023-03-18T17:15:07;99824.13;;;14.07;100.00
66664;BME280;59683;51.428;-1.994;2023-03-18T17:17:34;99838.06;;;13.43;100.00
66664;BME280;59683;51.428;-1.994;2023-03-18T17:20:01;99841.56;;;12.91;100.00
66664;BME280;59683;51.428;-1.994;2023-03-18T17:22:31;99849.28;;;12.40;100.00
66664;BME280;59683;51.428;-1.994;2023-03-18T17:24:57;99846.94;;;12.02;100.00
